createdAt,value
2023-03-06T00:01:07.107Z,21.13
2023-03-06T00:03:34.263Z,21.50
2023-03-06T00:06:01.213Z,18.88
2023-03-06T00:08:28.978Z,21.23
2023-03-06T00:10:56.496Z,23.98
2023-03-06T00:13:26.888Z,21.05
2023-03-06T00:15:53.908Z,21.52
2023-03-06T00:18:20.963Z,18.25
2023-03-06T00:20:47.928Z,16.88
2023-03-06T00:23:14.680Z,17.65
2023-03-06T00:25:45.332Z,17.90
2023-03-06T00:28:14.813Z,15.40
2023-03-06T00:30:42.272Z,15.68
2023-03-06T00:33:09.237Z,16.85
2023-03-06T00:35:39.077Z,15.20
2023-03-06T00:38:06.608Z,19.52
2023-03-06T00:40:33.556Z,17.88
2023-03-06T00:43:00.375Z,16.00
2023-03-06T00:45:27.312Z,16.35
2023-03-06T00:47:54.201Z,18.40
2023-03-06T00:50:21.030Z,19.73
2023-03-06T00:52:47.878Z,15.60
2023-03-06T00:55:14.754Z,19.67
2023-03-06T00:57:41.480Z,20.10
2023-03-06T01:00:08.735Z,19.33
2023-03-06T01:02:36.028Z,18.38
2023-03-06T01:05:02.980Z,19.40
2023-03-06T01:07:33.969Z,20.58
2023-03-06T01:10:01.086Z,19.80
2023-03-06T01:12:27.991Z,20.08
2023-03-06T01:14:54.891Z,17.77
2023-03-06T01:17:21.672Z,20.60
2023-03-06T01:19:48.702Z,18.27
2023-03-06T01:22:15.814Z,18.67
2023-03-06T01:24:42.591Z,19.45
2023-03-06T01:27:09.610Z,26.65
2023-03-06T01:29:36.519Z,26.27
2023-03-06T01:32:03.492Z,19.17
2023-03-06T01:34:30.420Z,18.33
2023-03-06T01:36:57.362Z,17.00
2023-03-06T01:39:24.305Z,20.52
2023-03-06T01:41:51.064Z,21.92
2023-03-06T01:44:18.293Z,19.63
2023-03-06T01:46:47.291Z,21.92
2023-03-06T01:49:30.960Z,17.15
2023-03-06T01:52:00.282Z,17.70
2023-03-06T01:54:39.166Z,24.45
2023-03-06T01:57:11.988Z,22.85
2023-03-06T01:59:41.005Z,19.08
2023-03-06T02:02:09.765Z,20.98
2023-03-06T02:04:38.988Z,19.60
2023-03-06T02:07:07.439Z,21.00
2023-03-06T02:09:34.794Z,20.80
2023-03-06T02:12:02.309Z,17.50
2023-03-06T02:14:29.556Z,19.92
2023-03-06T02:16:56.537Z,19.38
2023-03-06T02:19:29.700Z,17.13
2023-03-06T02:21:56.659Z,19.17
2023-03-06T02:24:34.609Z,18.17
2023-03-06T02:27:02.942Z,17.77
2023-03-06T02:29:31.456Z,17.00
2023-03-06T02:32:01.224Z,19.38
2023-03-06T02:34:28.780Z,19.83
2023-03-06T02:36:58.139Z,18.65
2023-03-06T02:39:27.753Z,15.13
2023-03-06T02:41:54.841Z,15.90
2023-03-06T02:44:23.155Z,18.98
2023-03-06T02:46:50.173Z,19.48
2023-03-06T02:49:17.027Z,22.92
2023-03-06T02:51:43.874Z,16.25
2023-03-06T02:54:12.062Z,19.05
2023-03-06T02:56:38.915Z,16.60
2023-03-06T02:59:06.260Z,16.40
2023-03-06T03:01:33.894Z,21.08
2023-03-06T03:04:00.713Z,17.40
2023-03-06T03:06:28.227Z,17.95
2023-03-06T03:08:55.252Z,18.13
2023-03-06T03:11:22.823Z,21.63
2023-03-06T03:13:49.676Z,21.42
2023-03-06T03:16:21.755Z,29.83
2023-03-06T03:18:50.329Z,23.58
2023-03-06T03:21:20.057Z,25.75
2023-03-06T03:23:48.323Z,24.25
2023-03-06T03:26:17.275Z,25.00
2023-03-06T03:28:48.880Z,25.40
2023-03-06T03:31:18.463Z,18.65
2023-03-06T03:33:45.488Z,19.35
2023-03-06T03:36:12.931Z,16.88
2023-03-06T03:38:42.713Z,26.35
2023-03-06T03:41:09.998Z,20.65
2023-03-06T03:43:36.875Z,18.73
2023-03-06T03:46:03.981Z,17.65
2023-03-06T03:48:31.036Z,18.83
2023-03-06T03:51:05.251Z,19.85
2023-03-06T03:53:33.552Z,17.77
2023-03-06T03:56:00.767Z,17.40
2023-03-06T03:58:28.473Z,14.63
2023-03-06T04:00:55.504Z,17.63
2023-03-06T04:03:22.330Z,23.38
2023-03-06T04:05:49.346Z,17.73
2023-03-06T04:08:17.028Z,15.65
2023-03-06T04:10:46.108Z,15.88
2023-03-06T04:13:15.285Z,16.88
2023-03-06T04:15:45.207Z,12.85
2023-03-06T04:18:12.321Z,16.90
2023-03-06T04:20:39.733Z,15.23
2023-03-06T04:23:06.887Z,16.33
2023-03-06T04:25:33.742Z,17.83
2023-03-06T04:28:02.505Z,14.13
2023-03-06T04:30:30.035Z,14.80
2023-03-06T04:32:57.533Z,18.92
2023-03-06T04:35:25.135Z,15.50
2023-03-06T04:37:58.393Z,13.55
2023-03-06T04:40:28.730Z,13.75
2023-03-06T04:42:56.693Z,17.90
2023-03-06T04:45:23.796Z,15.27
2023-03-06T04:47:50.833Z,17.50
2023-03-06T04:50:18.292Z,15.13
2023-03-06T04:52:45.285Z,15.18
2023-03-06T04:55:13.555Z,15.85
2023-03-06T04:57:42.854Z,16.02
2023-03-06T05:00:13.274Z,13.68
2023-03-06T05:02:41.664Z,15.93
2023-03-06T05:05:08.660Z,16.05
2023-03-06T05:07:35.445Z,13.73
2023-03-06T05:10:02.392Z,12.07
2023-03-06T05:12:29.459Z,13.80
2023-03-06T05:14:56.433Z,15.20
2023-03-06T05:17:23.314Z,11.95
2023-03-06T05:19:50.046Z,15.75
2023-03-06T05:22:16.959Z,16.50
2023-03-06T05:24:43.859Z,13.80
2023-03-06T05:27:11.206Z,15.57
2023-03-06T05:29:38.324Z,12.35
2023-03-06T05:32:05.377Z,12.68
2023-03-06T05:34:32.362Z,12.75
2023-03-06T05:37:00.708Z,13.43
2023-03-06T05:39:27.889Z,17.13
2023-03-06T05:41:54.959Z,15.88
2023-03-06T05:44:24.057Z,21.77
2023-03-06T05:46:50.927Z,15.32
2023-03-06T05:49:17.733Z,13.13
2023-03-06T05:51:44.620Z,16.17
2023-03-06T05:54:11.555Z,13.55
2023-03-06T05:56:38.480Z,13.07
2023-03-06T05:59:05.346Z,11.00
2023-03-06T06:01:32.559Z,14.30
2023-03-06T06:03:59.320Z,10.35
2023-03-06T06:06:26.180Z,13.63
2023-03-06T06:08:52.942Z,9.05
2023-03-06T06:11:20.839Z,10.05
2023-03-06T06:13:48.226Z,10.13
2023-03-06T06:16:16.490Z,11.05
2023-03-06T06:18:43.565Z,10.52
2023-03-06T06:21:11.798Z,12.15
2023-03-06T06:23:38.681Z,12.48
2023-03-06T06:26:06.531Z,15.23
2023-03-06T06:28:33.539Z,20.60
2023-03-06T06:31:00.512Z,15.75
2023-03-06T06:33:27.510Z,15.88
2023-03-06T06:35:54.538Z,13.40
2023-03-06T06:38:21.437Z,18.52
2023-03-06T06:41:18.093Z,22.33
2023-03-06T06:43:36.294Z,19.65
2023-03-06T06:46:28.280Z,14.98
2023-03-06T06:53:43.270Z,15.32
2023-03-06T06:56:10.937Z,15.23
2023-03-06T06:58:37.760Z,17.27
2023-03-06T07:01:08.356Z,18.15
2023-03-06T07:03:35.378Z,17.35
2023-03-06T07:06:02.416Z,21.92
2023-03-06T07:08:29.112Z,21.75
2023-03-06T07:10:56.011Z,19.60
2023-03-06T07:13:22.824Z,24.42
2023-03-06T07:15:49.756Z,15.02
2023-03-06T07:18:16.609Z,22.52
2023-03-06T07:20:43.402Z,19.02
2023-03-06T07:23:13.548Z,17.73
2023-03-06T07:25:40.772Z,20.85
2023-03-06T07:28:07.977Z,20.13
2023-03-06T07:30:34.917Z,19.33
2023-03-06T07:33:01.970Z,19.25
2023-03-06T07:35:29.049Z,16.42
2023-03-06T07:37:55.974Z,14.77
2023-03-06T07:40:23.364Z,16.25
2023-03-06T07:42:52.713Z,24.83
2023-03-06T07:45:24.515Z,16.13
2023-03-06T07:47:52.174Z,17.95
2023-03-06T07:50:19.403Z,18.60
2023-03-06T07:52:46.307Z,15.73
2023-03-06T07:55:13.251Z,18.08
2023-03-06T07:57:40.803Z,12.88
2023-03-06T08:00:09.972Z,16.75
2023-03-06T08:02:43.287Z,13.20
2023-03-06T08:05:12.452Z,18.80
2023-03-06T08:07:39.509Z,18.13
2023-03-06T08:10:06.623Z,14.00
2023-03-06T08:12:33.604Z,22.30
2023-03-06T08:15:00.443Z,13.90
2023-03-06T08:17:27.258Z,20.50
2023-03-06T08:19:54.230Z,22.08
2023-03-06T08:22:21.075Z,15.70
2023-03-06T08:24:47.860Z,13.13
2023-03-06T08:27:14.792Z,11.85
2023-03-06T08:29:41.637Z,7.28
2023-03-06T08:32:11.250Z,9.75
2023-03-06T08:34:40.004Z,13.68
2023-03-06T08:37:06.852Z,11.02
2023-03-06T08:39:33.781Z,9.18
2023-03-06T08:42:00.485Z,5.57
2023-03-06T08:44:27.290Z,7.30
2023-03-06T08:46:54.382Z,6.00
2023-03-06T08:49:21.464Z,15.07
2023-03-06T08:51:48.304Z,5.93
2023-03-06T08:54:15.191Z,4.40
2023-03-06T08:56:42.355Z,7.03
2023-03-06T08:59:11.047Z,9.88
2023-03-06T09:01:38.417Z,5.03
2023-03-06T09:04:06.874Z,9.30
2023-03-06T09:06:35.835Z,8.95
2023-03-06T09:09:03.370Z,6.63
2023-03-06T09:11:30.405Z,8.85
2023-03-06T09:13:57.410Z,8.73
2023-03-06T09:16:24.295Z,6.82
2023-03-06T09:18:53.151Z,5.30
2023-03-06T09:21:20.847Z,7.28
2023-03-06T09:23:48.038Z,5.47
2023-03-06T09:26:15.001Z,6.22
2023-03-06T09:28:41.954Z,4.65
2023-03-06T09:31:13.230Z,9.75
2023-03-06T09:33:40.826Z,5.63
2023-03-06T09:36:08.389Z,10.73
2023-03-06T09:38:35.281Z,6.47
2023-03-06T09:41:11.729Z,8.23
2023-03-06T09:43:40.481Z,5.93
2023-03-06T09:46:19.696Z,7.88
2023-03-06T09:48:49.919Z,4.78
2023-03-06T09:51:17.875Z,6.47
2023-03-06T09:53:47.443Z,3.80
2023-03-06T09:56:20.855Z,6.45
2023-03-06T09:58:53.812Z,8.90
2023-03-06T10:01:31.646Z,7.50
2023-03-06T10:04:13.890Z,6.05
2023-03-06T10:06:47.386Z,5.13
2023-03-06T10:09:23.232Z,7.75
2023-03-06T10:12:00.212Z,8.88
2023-03-06T10:14:27.903Z,6.05
2023-03-06T10:16:55.182Z,4.75
2023-03-06T10:19:22.234Z,5.03
2023-03-06T10:21:49.669Z,7.18
2023-03-06T10:24:28.814Z,4.15
2023-03-06T10:27:00.463Z,4.65
2023-03-06T10:29:33.166Z,3.67
2023-03-06T10:32:46.293Z,9.50
2023-03-06T10:35:17.833Z,7.47
2023-03-06T10:37:44.765Z,5.95
2023-03-06T10:40:22.005Z,9.02
2023-03-06T10:42:52.190Z,4.00
2023-03-06T10:45:25.476Z,6.68
2023-03-06T10:48:08.644Z,10.75
2023-03-06T10:50:35.566Z,11.65
2023-03-06T10:53:05.047Z,15.23
2023-03-06T10:55:33.398Z,14.00
2023-03-06T10:58:38.571Z,12.95
2023-03-06T11:01:07.288Z,11.07
2023-03-06T11:03:35.364Z,11.07
2023-03-06T11:06:02.652Z,10.45
2023-03-06T11:08:30.038Z,15.48
2023-03-06T11:11:01.911Z,8.93
2023-03-06T11:13:30.716Z,8.02
2023-03-06T11:16:02.478Z,6.82
2023-03-06T11:18:35.287Z,8.75
2023-03-06T11:21:04.216Z,6.90
2023-03-06T11:23:36.770Z,6.68
2023-03-06T11:26:15.452Z,8.50
2023-03-06T11:28:44.219Z,10.05
2023-03-06T11:31:16.746Z,7.45
2023-03-06T11:34:05.114Z,8.15
2023-03-06T11:36:48.391Z,10.35
2023-03-06T11:39:35.052Z,8.30
2023-03-06T11:42:25.154Z,6.75
2023-03-06T11:44:52.085Z,10.15
2023-03-06T11:47:32.112Z,7.43
2023-03-06T11:50:05.077Z,8.02
2023-03-06T11:52:52.965Z,8.35
2023-03-06T11:55:38.966Z,8.48
2023-03-06T12:00:51.386Z,7.07
2023-03-06T12:03:31.430Z,12.05
2023-03-06T12:06:04.332Z,10.38
2023-03-06T12:08:31.268Z,9.05
2023-03-06T12:11:02.459Z,8.57
2023-03-06T12:13:32.167Z,11.60
2023-03-06T12:16:12.359Z,12.23
2023-03-06T12:18:42.484Z,9.10
2023-03-06T12:21:28.176Z,9.10
2023-03-06T12:24:01.130Z,11.93
2023-03-06T12:26:43.025Z,9.82
2023-03-06T12:29:09.829Z,10.50
2023-03-06T12:31:36.689Z,10.63
2023-03-06T12:34:23.766Z,8.25
2023-03-06T12:37:02.695Z,10.43
2023-03-06T12:39:42.029Z,9.63
2023-03-06T12:42:17.796Z,10.88
2023-03-06T12:45:09.765Z,11.60
2023-03-06T12:47:41.853Z,11.57
2023-03-06T12:50:17.780Z,8.98
2023-03-06T12:52:46.148Z,11.25
2023-03-06T12:55:14.850Z,14.10
2023-03-06T12:57:42.185Z,11.60
2023-03-06T13:00:29.167Z,12.43
2023-03-06T13:03:02.128Z,10.48
2023-03-06T13:05:42.198Z,10.07
2023-03-06T13:08:21.038Z,11.20
2023-03-06T13:11:03.410Z,11.00
2023-03-06T13:13:41.651Z,11.45
2023-03-06T13:16:13.397Z,8.52
2023-03-06T13:18:43.732Z,7.97
2023-03-06T13:21:29.727Z,14.70
2023-03-06T13:24:04.054Z,12.10
2023-03-06T13:26:31.020Z,11.40
2023-03-06T13:28:58.206Z,13.65
2023-03-06T13:31:28.869Z,13.02
2023-03-06T13:34:00.185Z,16.55
2023-03-06T13:36:28.443Z,15.13
2023-03-06T13:38:55.237Z,7.13
2023-03-06T13:41:21.996Z,11.55
2023-03-06T13:43:49.636Z,9.80
2023-03-06T13:46:26.243Z,14.48
2023-03-06T13:49:08.053Z,17.27
2023-03-06T13:51:43.202Z,13.30
2023-03-06T13:54:19.168Z,16.73
2023-03-06T13:56:51.884Z,13.50
2023-03-06T13:59:18.628Z,19.52
2023-03-06T14:02:04.985Z,15.95
2023-03-06T14:04:45.760Z,13.15
2023-03-06T14:07:22.586Z,14.05
2023-03-06T14:09:58.895Z,9.25
2023-03-06T14:12:29.315Z,12.68
2023-03-06T14:14:57.955Z,10.38
2023-03-06T14:17:27.805Z,11.43
2023-03-06T14:19:58.127Z,11.63
2023-03-06T14:22:25.624Z,10.85
2023-03-06T14:24:57.565Z,13.45
2023-03-06T14:28:12.573Z,11.35
2023-03-06T14:30:48.218Z,12.07
2023-03-06T14:33:23.405Z,9.85
2023-03-06T14:35:51.763Z,9.53
2023-03-06T14:38:18.724Z,12.82
2023-03-06T14:40:45.686Z,10.38
2023-03-06T14:43:21.526Z,10.70
2023-03-06T14:45:49.392Z,12.80
2023-03-06T14:48:16.435Z,15.85
2023-03-06T14:50:47.296Z,13.15
2023-03-06T14:53:16.234Z,12.93
2023-03-06T14:56:00.440Z,16.33
2023-03-06T14:58:42.446Z,13.27
2023-03-06T15:01:11.030Z,15.48
2023-03-06T15:03:54.909Z,14.95
2023-03-06T15:06:23.871Z,14.52
2023-03-06T15:09:02.286Z,13.75
2023-03-06T15:11:48.038Z,18.35
2023-03-06T15:14:18.339Z,19.47
2023-03-06T15:16:45.235Z,16.35
2023-03-06T15:19:19.732Z,17.98
2023-03-06T15:21:47.326Z,19.23
2023-03-06T15:24:33.251Z,19.42
2023-03-06T15:27:01.495Z,22.73
2023-03-06T15:29:28.399Z,22.63
2023-03-06T15:32:13.089Z,19.00
2023-03-06T15:34:40.231Z,19.90
2023-03-06T15:37:26.049Z,19.02
2023-03-06T15:40:09.666Z,20.87
2023-03-06T15:42:36.782Z,22.33
2023-03-06T15:45:15.859Z,24.30
2023-03-06T15:47:43.414Z,21.10
2023-03-06T15:50:19.041Z,27.98
2023-03-06T15:52:46.429Z,24.77
2023-03-06T15:55:13.901Z,30.23
2023-03-06T15:57:54.345Z,29.88
2023-03-06T16:00:28.331Z,25.75
2023-03-06T16:02:58.699Z,20.58
2023-03-06T16:05:26.207Z,23.73
2023-03-06T16:07:53.183Z,27.98
2023-03-06T16:10:23.478Z,23.20
2023-03-06T16:13:04.085Z,25.30
2023-03-06T16:15:33.178Z,25.05
2023-03-06T16:18:03.281Z,22.40
2023-03-06T16:20:30.196Z,23.45
2023-03-06T16:22:57.484Z,24.42
2023-03-06T16:25:26.006Z,22.63
2023-03-06T16:28:00.377Z,21.40
2023-03-06T16:30:28.406Z,22.27
2023-03-06T16:32:55.291Z,20.65
2023-03-06T16:35:22.359Z,23.05
2023-03-06T16:37:49.517Z,23.25
2023-03-06T16:40:19.453Z,17.20
2023-03-06T16:42:46.745Z,22.10
2023-03-06T16:45:14.141Z,21.08
2023-03-06T16:47:42.121Z,17.60
2023-03-06T16:50:29.157Z,18.92
2023-03-06T16:52:57.024Z,20.30
2023-03-06T16:55:25.075Z,22.70
2023-03-06T16:57:52.045Z,26.45
2023-03-06T17:00:19.834Z,26.60
2023-03-06T17:02:50.232Z,22.88
2023-03-06T17:05:17.325Z,26.45
2023-03-06T17:07:44.212Z,26.25
2023-03-06T17:10:12.923Z,22.02
2023-03-06T17:12:39.925Z,23.05
2023-03-06T17:15:07.536Z,24.60
2023-03-06T17:17:34.666Z,23.38
2023-03-06T17:20:02.251Z,24.92
2023-03-06T17:22:29.057Z,26.38
2023-03-06T17:24:56.138Z,25.67
2023-03-06T17:27:23.103Z,26.17
2023-03-06T17:29:49.985Z,21.02
2023-03-06T17:32:16.783Z,24.92
2023-03-06T17:34:43.665Z,24.60
2023-03-06T17:37:10.973Z,20.52
2023-03-06T17:39:38.901Z,24.13
2023-03-06T17:42:06.851Z,26.83
2023-03-06T17:44:34.561Z,24.83
2023-03-06T17:47:02.078Z,27.83
2023-03-06T17:49:29.014Z,24.45
2023-03-06T17:51:59.942Z,27.45
2023-03-06T17:54:27.145Z,25.70
2023-03-06T17:56:54.059Z,23.65
2023-03-06T17:59:21.028Z,24.33
2023-03-06T18:01:47.984Z,27.63
2023-03-06T18:04:15.208Z,26.63
2023-03-06T18:06:42.032Z,28.15
2023-03-06T18:09:10.484Z,26.50
2023-03-06T18:11:37.572Z,29.45
2023-03-06T18:14:05.605Z,25.10
2023-03-06T18:16:33.117Z,25.10
2023-03-06T18:19:02.236Z,33.47
2023-03-06T18:21:29.154Z,28.90
2023-03-06T18:23:57.650Z,29.50
2023-03-06T18:26:28.587Z,27.75
2023-03-06T18:28:56.837Z,28.83
2023-03-06T18:31:27.795Z,31.33
2023-03-06T18:33:56.073Z,31.42
2023-03-06T18:36:24.644Z,27.35
2023-03-06T18:38:51.735Z,31.25
2023-03-06T18:41:19.121Z,33.65
2023-03-06T18:43:50.706Z,32.70
2023-03-06T18:46:17.571Z,34.88
2023-03-06T18:48:44.342Z,32.22
2023-03-06T18:51:14.020Z,31.60
2023-03-06T18:53:41.474Z,33.80
2023-03-06T18:56:10.751Z,34.55
2023-03-06T18:58:37.645Z,36.13
2023-03-06T19:01:07.708Z,40.63
2023-03-06T19:03:35.156Z,32.70
2023-03-06T19:06:09.882Z,33.42
2023-03-06T19:08:37.995Z,32.15
2023-03-06T19:11:09.828Z,36.97
2023-03-06T19:13:36.704Z,38.83
2023-03-06T19:16:03.646Z,35.72
2023-03-06T19:18:30.752Z,36.63
2023-03-06T19:21:11.039Z,39.13
2023-03-06T19:23:38.098Z,39.60
2023-03-06T19:26:05.214Z,33.03
2023-03-06T19:28:32.235Z,32.17
2023-03-06T19:30:59.220Z,35.63
2023-03-06T19:33:26.024Z,38.03
2023-03-06T19:35:53.228Z,40.75
2023-03-06T19:38:19.975Z,36.95
2023-03-06T19:40:50.211Z,42.88
2023-03-06T19:43:17.166Z,46.58
2023-03-06T19:45:44.581Z,40.72
2023-03-06T19:48:12.500Z,44.80
2023-03-06T19:50:39.869Z,39.83
2023-03-06T19:53:07.826Z,41.03
2023-03-06T19:55:34.920Z,38.75
2023-03-06T19:58:01.766Z,43.00
2023-03-06T20:00:29.131Z,44.25
2023-03-06T20:02:56.833Z,45.22
2023-03-06T20:05:23.584Z,43.75
2023-03-06T20:07:51.009Z,38.72
2023-03-06T20:10:18.181Z,44.08
2023-03-06T20:12:45.121Z,51.03
2023-03-06T20:15:12.016Z,49.17
2023-03-06T20:17:40.764Z,44.17
2023-03-06T20:20:09.704Z,50.33
2023-03-06T20:22:36.793Z,52.65
2023-03-06T20:25:03.930Z,52.10
2023-03-06T20:27:30.673Z,43.75
2023-03-06T20:29:57.428Z,44.35
2023-03-06T20:32:24.511Z,48.55
2023-03-06T20:34:51.414Z,39.42
2023-03-06T20:37:18.496Z,35.20
2023-03-06T20:39:45.458Z,37.95
2023-03-06T20:42:12.181Z,42.67
2023-03-06T20:44:39.224Z,36.30
2023-03-06T20:47:06.314Z,37.45
2023-03-06T20:49:33.612Z,36.97
2023-03-06T20:52:00.756Z,37.70
2023-03-06T20:54:27.586Z,32.88
2023-03-06T20:56:54.600Z,31.05
2023-03-06T20:59:21.699Z,31.13
2023-03-06T21:01:48.596Z,29.27
2023-03-06T21:04:16.064Z,26.95
2023-03-06T21:06:46.454Z,20.00
2023-03-06T21:09:14.650Z,20.33
2023-03-06T21:11:42.598Z,20.23
2023-03-06T21:14:09.790Z,12.65
2023-03-06T21:16:36.631Z,8.48
2023-03-06T21:19:03.532Z,6.68
2023-03-06T21:21:31.431Z,6.03
2023-03-06T21:23:58.599Z,6.00
2023-03-06T21:26:26.733Z,6.60
2023-03-06T21:28:54.276Z,9.45
2023-03-06T21:31:21.647Z,6.97
2023-03-06T21:33:49.206Z,7.95
2023-03-06T21:36:16.347Z,6.38
2023-03-06T21:38:43.144Z,8.80
2023-03-06T21:41:11.042Z,6.93
2023-03-06T21:43:37.916Z,6.70
2023-03-06T21:46:04.947Z,8.82
2023-03-06T21:48:31.855Z,8.73
2023-03-06T21:51:08.843Z,14.68
2023-03-06T21:53:38.539Z,9.70
2023-03-06T21:56:05.921Z,11.60
2023-03-06T21:58:32.952Z,10.77
2023-03-06T22:01:00.445Z,7.28
2023-03-06T22:03:28.626Z,8.10
2023-03-06T22:05:56.722Z,7.95
2023-03-06T22:08:25.146Z,6.88
2023-03-06T22:10:52.120Z,10.75
2023-03-06T22:13:19.347Z,7.85
2023-03-06T22:15:49.721Z,6.70
2023-03-06T22:18:16.571Z,7.47
2023-03-06T22:20:43.683Z,8.73
2023-03-06T22:23:11.121Z,7.07
2023-03-06T22:25:38.010Z,7.75
2023-03-06T22:28:05.077Z,7.82
2023-03-06T22:30:31.820Z,8.23
2023-03-06T22:32:58.763Z,7.45
2023-03-06T22:35:25.749Z,5.40
2023-03-06T22:37:52.649Z,7.32
2023-03-06T22:40:19.592Z,8.02
2023-03-06T22:42:46.414Z,4.63
2023-03-06T22:45:13.175Z,13.20
2023-03-06T22:47:40.050Z,6.63
2023-03-06T22:50:07.144Z,9.48
2023-03-06T22:52:34.134Z,8.95
2023-03-06T22:55:00.943Z,9.98
2023-03-06T22:57:27.824Z,11.32
2023-03-06T22:59:54.681Z,10.93
2023-03-06T23:02:21.567Z,11.25
2023-03-06T23:04:52.310Z,10.10
2023-03-06T23:07:22.275Z,7.82
2023-03-06T23:09:49.920Z,9.70
2023-03-06T23:12:35.047Z,5.97
2023-03-06T23:15:20.330Z,5.60
2023-03-06T23:18:06.530Z,11.13
2023-03-06T23:20:51.694Z,7.03
2023-03-06T23:23:37.676Z,7.68
2023-03-06T23:26:06.351Z,8.68
2023-03-06T23:28:33.361Z,8.68
2023-03-06T23:31:00.323Z,7.72
2023-03-06T23:33:27.219Z,5.93
2023-03-06T23:35:54.119Z,7.22
2023-03-06T23:38:20.888Z,11.23
2023-03-06T23:40:47.982Z,8.70
2023-03-06T23:43:14.914Z,7.88
2023-03-06T23:45:41.738Z,10.25
2023-03-06T23:48:08.592Z,15.35
2023-03-06T23:50:35.709Z,8.27
2023-03-06T23:53:02.517Z,16.70
2023-03-06T23:55:29.346Z,11.70
2023-03-06T23:57:56.096Z,13.60
